createdAt,value
2022-10-02T00:00:31.443Z,3.28
2022-10-02T00:03:08.279Z,3.00
2022-10-02T00:05:46.699Z,2.83
2022-10-02T00:08:29.076Z,3.17
2022-10-02T00:11:01.574Z,3.05
2022-10-02T00:14:01.706Z,3.05
2022-10-02T00:16:34.770Z,2.83
2022-10-02T00:19:02.080Z,3.03
2022-10-02T00:21:35.802Z,2.80
2022-10-02T00:24:05.668Z,2.97
2022-10-02T00:26:50.498Z,2.33
2022-10-02T00:29:27.545Z,2.60
2022-10-02T00:32:16.556Z,3.03
2022-10-02T00:35:07.801Z,2.38
2022-10-02T00:37:52.526Z,2.78
2022-10-02T00:40:42.835Z,2.40
2022-10-02T00:43:24.075Z,2.45
2022-10-02T00:45:56.349Z,2.30
2022-10-02T00:48:30.368Z,2.10
2022-10-02T00:51:22.945Z,2.03
2022-10-02T00:54:18.352Z,3.25
2022-10-02T00:57:16.029Z,2.50
2022-10-02T01:00:04.308Z,1.95
2022-10-02T01:02:36.921Z,1.80
2022-10-02T01:05:08.488Z,2.13
2022-10-02T01:07:39.133Z,2.33
2022-10-02T01:10:06.723Z,2.03
2022-10-02T01:12:33.263Z,1.40
2022-10-02T01:14:59.711Z,1.75
2022-10-02T01:17:34.174Z,1.98
2022-10-02T01:20:07.513Z,1.98
2022-10-02T01:22:46.127Z,2.67
2022-10-02T01:25:12.897Z,2.58
2022-10-02T01:27:39.834Z,3.13
2022-10-02T01:30:12.346Z,2.90
2022-10-02T01:32:43.895Z,2.80
2022-10-02T01:35:10.785Z,3.22
2022-10-02T01:37:41.204Z,3.30
2022-10-02T01:40:10.867Z,3.00
2022-10-02T01:42:39.271Z,3.03
2022-10-02T01:45:08.561Z,3.33
2022-10-02T01:47:51.635Z,3.95
2022-10-02T01:50:38.228Z,3.88
2022-10-02T01:53:20.140Z,3.63
2022-10-02T01:56:01.196Z,3.30
2022-10-02T01:58:52.577Z,4.47
2022-10-02T02:01:25.198Z,4.60
2022-10-02T02:04:09.611Z,4.97
2022-10-02T02:06:51.835Z,5.20
2022-10-02T02:12:15.185Z,5.10
2022-10-02T02:14:51.986Z,5.03
2022-10-02T02:17:31.390Z,5.72
2022-10-02T02:20:14.571Z,6.03
2022-10-02T02:22:45.480Z,5.00
2022-10-02T02:25:22.523Z,5.50
2022-10-02T02:27:54.704Z,5.45
2022-10-02T02:30:22.554Z,5.47
2022-10-02T02:32:55.790Z,5.30
2022-10-02T02:35:30.981Z,6.53
2022-10-02T02:38:05.047Z,5.70
2022-10-02T02:40:36.267Z,6.28
2022-10-02T02:43:08.941Z,5.38
2022-10-02T02:45:44.439Z,6.43
2022-10-02T02:48:36.833Z,5.88
2022-10-02T02:53:43.221Z,6.53
2022-10-02T02:56:15.596Z,6.07
2022-10-02T02:58:58.197Z,6.00
2022-10-02T03:01:24.838Z,6.00
2022-10-02T03:03:51.307Z,5.95
2022-10-02T03:06:21.159Z,5.95
2022-10-02T03:08:51.615Z,6.22
2022-10-02T03:11:39.330Z,6.40
2022-10-02T03:14:11.832Z,6.25
2022-10-02T03:16:50.433Z,6.18
2022-10-02T03:19:41.821Z,6.25
2022-10-02T03:22:27.149Z,6.40
2022-10-02T03:25:20.359Z,6.10
2022-10-02T03:27:52.722Z,7.18
2022-10-02T03:30:20.723Z,6.00
2022-10-02T03:32:51.351Z,6.50
2022-10-02T03:35:18.492Z,6.78
2022-10-02T03:37:49.922Z,5.93
2022-10-02T03:40:16.468Z,6.63
2022-10-02T03:42:43.214Z,6.88
2022-10-02T03:45:09.889Z,6.45
2022-10-02T03:47:36.336Z,6.97
2022-10-02T03:50:02.850Z,5.85
2022-10-02T03:52:32.610Z,5.93
2022-10-02T03:55:03.579Z,6.30
2022-10-02T03:57:33.453Z,6.07
2022-10-02T04:00:09.146Z,6.20
2022-10-02T04:02:49.855Z,5.63
2022-10-02T04:05:26.773Z,6.00
2022-10-02T04:08:05.026Z,6.93
2022-10-02T04:10:42.579Z,6.32
2022-10-02T04:13:24.147Z,5.75
2022-10-02T04:16:05.249Z,6.40
2022-10-02T04:18:41.369Z,6.88
2022-10-02T04:21:17.648Z,6.28
2022-10-02T04:23:50.742Z,6.35
2022-10-02T04:26:23.481Z,5.97
2022-10-02T04:28:55.554Z,6.03
2022-10-02T04:33:50.614Z,6.97
2022-10-02T04:36:41.010Z,6.43
2022-10-02T04:39:29.805Z,6.07
2022-10-02T04:42:42.759Z,6.45
2022-10-02T04:45:27.329Z,7.45
2022-10-02T04:48:26.377Z,6.68
2022-10-02T04:51:03.773Z,6.80
2022-10-02T04:54:07.527Z,6.63
2022-10-02T04:57:01.453Z,7.40
2022-10-02T04:59:42.770Z,6.05
2022-10-02T05:02:18.402Z,6.50
2022-10-02T05:05:03.417Z,7.18
2022-10-02T05:08:07.374Z,6.82
2022-10-02T05:10:52.600Z,6.85
2022-10-02T05:13:40.931Z,7.82
2022-10-02T05:16:16.740Z,7.65
2022-10-02T05:19:02.021Z,6.85
2022-10-02T05:21:37.233Z,8.02
2022-10-02T05:24:42.061Z,7.80
2022-10-02T05:27:39.142Z,7.18
2022-10-02T05:30:07.606Z,6.88
2022-10-02T05:32:42.906Z,7.70
2022-10-02T05:35:45.413Z,7.75
2022-10-02T05:41:19.375Z,8.88
2022-10-02T05:44:15.091Z,8.32
2022-10-02T05:47:09.478Z,11.23
2022-10-02T05:49:40.885Z,8.57
2022-10-02T05:52:31.169Z,7.10
2022-10-02T05:55:35.928Z,6.47
2022-10-02T05:58:16.410Z,6.70
2022-10-02T06:00:52.273Z,6.95
2022-10-02T06:03:43.527Z,7.13
2022-10-02T06:06:20.258Z,7.18
2022-10-02T06:08:53.471Z,7.25
2022-10-02T06:11:25.995Z,7.63
2022-10-02T06:14:00.621Z,6.78
2022-10-02T06:16:39.737Z,7.00
2022-10-02T06:19:23.265Z,7.38
2022-10-02T06:21:55.044Z,6.47
2022-10-02T06:24:31.728Z,7.22
2022-10-02T06:27:04.579Z,6.85
2022-10-02T06:29:42.327Z,7.15
2022-10-02T06:32:46.281Z,6.45
2022-10-02T06:35:15.764Z,6.45
2022-10-02T06:38:01.265Z,5.63
2022-10-02T06:40:59.134Z,6.28
2022-10-02T06:43:40.394Z,6.05
2022-10-02T06:46:25.138Z,6.10
2022-10-02T06:49:09.647Z,5.97
2022-10-02T06:51:47.628Z,6.07
2022-10-02T06:54:51.050Z,5.13
2022-10-02T06:57:30.667Z,5.45
2022-10-02T07:00:14.770Z,5.40
2022-10-02T07:03:09.411Z,5.53
2022-10-02T07:06:01.306Z,5.30
2022-10-02T07:09:06.036Z,6.03
2022-10-02T07:11:40.984Z,5.30
2022-10-02T07:14:16.353Z,5.07
2022-10-02T07:16:46.548Z,4.97
2022-10-02T07:19:53.631Z,5.20
2022-10-02T07:22:45.777Z,5.20
2022-10-02T07:25:23.119Z,5.55
2022-10-02T07:27:55.836Z,5.65
2022-10-02T07:30:22.577Z,6.60
2022-10-02T07:32:49.082Z,5.50
2022-10-02T07:35:39.920Z,6.05
2022-10-02T07:38:44.763Z,6.55
2022-10-02T07:41:35.927Z,6.15
2022-10-02T07:44:27.613Z,5.32
2022-10-02T07:47:17.065Z,5.47
2022-10-02T07:49:52.464Z,5.60
2022-10-02T07:52:55.482Z,6.00
2022-10-02T07:55:23.730Z,5.43
2022-10-02T07:57:59.321Z,5.28
2022-10-02T08:00:31.339Z,5.25
2022-10-02T08:05:53.564Z,5.75
2022-10-02T08:08:25.841Z,5.88
2022-10-02T08:11:04.039Z,5.97
2022-10-02T08:13:39.932Z,5.70
2022-10-02T08:16:08.814Z,6.05
2022-10-02T08:18:39.946Z,6.68
2022-10-02T08:21:16.924Z,6.63
2022-10-02T08:23:55.379Z,5.97
2022-10-02T08:26:35.820Z,6.03
2022-10-02T08:29:21.397Z,6.20
2022-10-02T08:31:52.940Z,6.43
2022-10-02T08:34:22.162Z,7.22
2022-10-02T08:36:59.439Z,6.70
2022-10-02T08:39:50.673Z,5.97
2022-10-02T08:42:32.344Z,6.57
2022-10-02T08:45:46.564Z,7.05
2022-10-02T08:48:42.484Z,6.60
2022-10-02T08:51:45.199Z,6.47
2022-10-02T08:54:54.551Z,5.95
2022-10-02T08:57:36.848Z,5.80
2022-10-02T09:00:24.808Z,5.15
2022-10-02T09:03:28.991Z,4.85
2022-10-02T09:06:19.685Z,5.60
2022-10-02T09:08:58.003Z,5.80
2022-10-02T09:11:45.139Z,5.30
2022-10-02T09:14:37.302Z,5.97
2022-10-02T09:17:32.258Z,5.63
2022-10-02T09:20:30.268Z,5.70
2022-10-02T09:23:28.075Z,5.97
2022-10-02T09:26:12.916Z,6.25
2022-10-02T09:29:13.704Z,7.00
2022-10-02T09:32:03.908Z,7.10
2022-10-02T09:35:08.009Z,7.10
2022-10-02T09:37:59.566Z,7.03
2022-10-02T09:40:44.586Z,6.72
2022-10-02T09:43:23.145Z,6.60
2022-10-02T09:46:17.091Z,6.35
2022-10-02T09:49:08.934Z,6.53
2022-10-02T09:51:41.809Z,5.88
2022-10-02T09:54:11.380Z,5.95
2022-10-02T09:57:04.242Z,5.75
2022-10-02T10:00:05.178Z,5.38
2022-10-02T10:02:48.112Z,5.78
2022-10-02T10:05:34.616Z,5.00
2022-10-02T10:08:41.841Z,5.15
2022-10-02T10:11:35.998Z,5.22
2022-10-02T10:14:29.274Z,4.65
2022-10-02T10:17:33.366Z,5.30
2022-10-02T10:20:46.301Z,5.60
2022-10-02T10:23:22.358Z,4.85
2022-10-02T10:26:33.282Z,5.07
2022-10-02T10:29:19.783Z,5.60
2022-10-02T10:32:16.869Z,5.05
2022-10-02T10:34:55.305Z,5.63
2022-10-02T10:38:13.027Z,5.70
2022-10-02T10:40:55.382Z,4.60
2022-10-02T10:43:42.083Z,4.95
2022-10-02T10:46:26.972Z,4.85
2022-10-02T10:49:12.174Z,4.63
2022-10-02T10:51:55.524Z,4.22
2022-10-02T10:55:02.779Z,4.47
2022-10-02T10:57:58.605Z,3.60
2022-10-02T11:00:32.777Z,3.85
2022-10-02T11:03:27.969Z,3.72
2022-10-02T11:06:16.800Z,3.20
2022-10-02T11:09:03.538Z,3.25
2022-10-02T11:12:09.680Z,3.08
2022-10-02T11:14:51.435Z,2.85
2022-10-02T11:17:39.837Z,3.08
2022-10-02T11:20:14.992Z,3.00
2022-10-02T11:23:26.652Z,3.20
2022-10-02T11:26:09.795Z,3.73
2022-10-02T11:29:10.173Z,3.30
2022-10-02T11:32:03.564Z,3.63
2022-10-02T11:34:48.439Z,2.78
2022-10-02T11:37:38.692Z,2.85
2022-10-02T11:40:31.068Z,3.20
2022-10-02T11:43:45.175Z,2.80
2022-10-02T11:46:33.615Z,2.53
2022-10-02T11:49:30.154Z,2.95
2022-10-02T11:52:18.058Z,2.60
2022-10-02T11:55:05.613Z,2.20
2022-10-02T11:57:52.132Z,2.50
2022-10-02T12:00:38.637Z,2.50
2022-10-02T12:03:27.960Z,2.70
2022-10-02T12:06:15.280Z,2.90
2022-10-02T12:09:09.408Z,2.50
2022-10-02T12:11:56.858Z,2.17
2022-10-02T12:14:42.713Z,3.05
2022-10-02T12:17:27.708Z,2.58
2022-10-02T12:20:15.810Z,2.90
2022-10-02T12:23:17.340Z,2.78
2022-10-02T12:26:10.445Z,2.40
2022-10-02T12:28:56.866Z,2.42
2022-10-02T12:31:35.596Z,2.35
2022-10-02T12:34:21.010Z,2.78
2022-10-02T12:37:10.707Z,2.95
2022-10-02T12:40:03.406Z,2.90
2022-10-02T12:43:03.702Z,2.78
2022-10-02T12:45:47.580Z,2.28
2022-10-02T12:48:33.632Z,2.40
2022-10-02T12:51:30.464Z,2.40
2022-10-02T12:54:38.890Z,2.42
2022-10-02T12:57:45.515Z,2.30
2022-10-02T13:00:20.790Z,3.00
2022-10-02T13:03:05.432Z,2.80
2022-10-02T13:06:10.826Z,3.28
2022-10-02T13:08:48.340Z,3.33
2022-10-02T13:11:14.765Z,1.77
2022-10-02T13:14:07.043Z,1.88
2022-10-02T13:19:50.606Z,1.90
2022-10-02T13:22:24.946Z,2.10
2022-10-02T13:25:24.033Z,2.55
2022-10-02T13:27:55.866Z,2.55
2022-10-02T13:30:24.014Z,2.67
2022-10-02T13:33:17.389Z,2.40
2022-10-02T13:36:06.870Z,2.13
2022-10-02T13:39:23.443Z,2.22
2022-10-02T13:42:25.804Z,3.03
2022-10-02T13:45:06.046Z,2.60
2022-10-02T13:47:41.304Z,2.63
2022-10-02T13:50:20.005Z,2.00
2022-10-02T13:53:12.991Z,2.28
2022-10-02T13:55:46.996Z,4.05
2022-10-02T13:58:45.853Z,2.40
2022-10-02T14:01:17.974Z,2.58
2022-10-02T14:04:06.989Z,2.53
2022-10-02T14:06:36.420Z,2.97
2022-10-02T14:09:25.777Z,2.78
2022-10-02T14:12:32.772Z,3.60
2022-10-02T14:15:11.511Z,2.85
2022-10-02T14:17:50.361Z,3.53
2022-10-02T14:20:29.113Z,2.88
2022-10-02T14:23:21.775Z,3.45
2022-10-02T14:26:00.432Z,3.42
2022-10-02T14:28:30.019Z,2.80
2022-10-02T14:31:21.114Z,3.05
2022-10-02T14:33:53.451Z,2.92
2022-10-02T14:36:26.023Z,3.03
2022-10-02T14:39:16.740Z,2.72
2022-10-02T14:41:51.918Z,2.90
2022-10-02T14:44:32.848Z,2.42
2022-10-02T14:47:15.649Z,3.05
2022-10-02T14:50:11.682Z,2.90
2022-10-02T14:53:14.958Z,2.67
2022-10-02T14:55:58.094Z,2.65
2022-10-02T14:58:36.614Z,2.70
2022-10-02T15:01:24.704Z,2.80
2022-10-02T15:04:09.851Z,2.70
2022-10-02T15:06:46.552Z,2.88
2022-10-02T15:09:21.626Z,2.95
2022-10-02T15:12:10.680Z,3.10
2022-10-02T15:15:08.454Z,2.78
2022-10-02T15:17:56.340Z,2.55
2022-10-02T15:20:52.350Z,3.10
2022-10-02T15:23:44.100Z,3.55
2022-10-02T15:26:35.532Z,2.85
2022-10-02T15:29:21.094Z,3.10
2022-10-02T15:32:23.882Z,2.75
2022-10-02T15:35:11.579Z,2.83
2022-10-02T15:38:23.302Z,2.60
2022-10-02T15:41:16.541Z,2.90
2022-10-02T15:44:00.687Z,2.30
2022-10-02T15:46:51.348Z,2.47
2022-10-02T15:49:39.074Z,2.20
2022-10-02T15:52:10.330Z,2.40
2022-10-02T15:54:51.829Z,2.58
2022-10-02T15:57:43.403Z,2.40
2022-10-02T16:00:21.006Z,3.10
2022-10-02T16:03:02.961Z,2.42
2022-10-02T16:05:51.000Z,2.17
2022-10-02T16:08:35.998Z,2.00
2022-10-02T16:11:23.189Z,2.28
2022-10-02T16:14:33.779Z,2.53
2022-10-02T16:17:00.202Z,2.05
2022-10-02T16:19:48.062Z,2.13
2022-10-02T16:22:17.934Z,2.10
2022-10-02T16:25:03.112Z,2.35
2022-10-02T16:27:48.695Z,2.15
2022-10-02T16:30:24.207Z,2.08
2022-10-02T16:33:18.684Z,2.25
2022-10-02T16:36:06.198Z,2.38
2022-10-02T16:38:38.483Z,1.92
2022-10-02T16:41:24.690Z,1.77
2022-10-02T16:44:02.022Z,2.22
2022-10-02T16:46:52.745Z,2.15
2022-10-02T16:49:31.918Z,2.42
2022-10-02T16:52:09.880Z,2.78
2022-10-02T16:54:48.729Z,2.65
2022-10-02T16:57:18.005Z,2.42
2022-10-02T16:59:52.171Z,2.80
2022-10-02T17:02:43.380Z,2.22
2022-10-02T17:05:47.820Z,2.10
2022-10-02T17:08:31.077Z,2.33
2022-10-02T17:11:30.604Z,2.00
2022-10-02T17:14:25.198Z,2.55
2022-10-02T17:16:55.828Z,2.17
2022-10-02T17:19:35.199Z,2.63
2022-10-02T17:22:27.125Z,2.85
2022-10-02T17:25:27.004Z,2.95
2022-10-02T17:28:08.484Z,2.70
2022-10-02T17:31:09.203Z,3.00
2022-10-02T17:34:17.773Z,3.25
2022-10-02T17:37:07.152Z,2.70
2022-10-02T17:39:58.411Z,2.60
2022-10-02T17:42:51.894Z,2.85
2022-10-02T17:45:45.767Z,3.00
2022-10-02T17:48:33.275Z,3.13
2022-10-02T17:55:14.095Z,3.47
2022-10-02T17:58:14.192Z,3.25
2022-10-02T18:01:18.362Z,3.22
2022-10-02T18:04:03.687Z,3.28
2022-10-02T18:06:38.011Z,3.47
2022-10-02T18:09:29.099Z,3.25
2022-10-02T18:12:19.781Z,3.05
2022-10-02T18:14:50.372Z,2.90
2022-10-02T18:18:02.675Z,3.58
2022-10-02T18:20:33.496Z,3.88
2022-10-02T18:23:29.379Z,3.40
2022-10-02T18:26:21.582Z,3.30
2022-10-02T18:29:02.071Z,2.78
2022-10-02T18:31:59.246Z,2.90
2022-10-02T18:35:00.482Z,3.33
2022-10-02T18:37:51.962Z,2.65
2022-10-02T18:40:29.614Z,3.70
2022-10-02T18:43:15.457Z,2.92
2022-10-02T18:45:55.983Z,3.40
2022-10-02T18:48:44.303Z,2.85
2022-10-02T18:51:11.115Z,3.35
2022-10-02T18:54:17.927Z,3.00
2022-10-02T18:56:56.804Z,3.58
2022-10-02T18:59:26.058Z,3.28
2022-10-02T19:02:26.280Z,3.35
2022-10-02T19:05:04.819Z,3.20
2022-10-02T19:08:02.867Z,3.33
2022-10-02T19:10:32.323Z,3.45
2022-10-02T19:13:17.937Z,3.13
2022-10-02T19:15:48.428Z,2.70
2022-10-02T19:18:26.911Z,3.10
2022-10-02T19:21:08.295Z,2.88
2022-10-02T19:24:05.954Z,3.47
2022-10-02T19:26:35.590Z,3.15
2022-10-02T19:29:26.748Z,2.78
2022-10-02T19:31:55.591Z,2.83
2022-10-02T19:34:27.637Z,3.03
2022-10-02T19:39:42.930Z,3.30
2022-10-02T19:42:15.909Z,2.90
2022-10-02T19:44:49.366Z,2.83
2022-10-02T19:47:31.751Z,3.00
2022-10-02T19:50:01.008Z,3.25
2022-10-02T19:52:35.799Z,2.97
2022-10-02T19:55:16.068Z,2.83
2022-10-02T19:57:45.212Z,3.10
2022-10-02T20:00:20.220Z,3.05
2022-10-02T20:02:48.984Z,3.35
2022-10-02T20:05:20.655Z,3.03
2022-10-02T20:07:49.573Z,3.70
2022-10-02T20:10:22.334Z,3.85
2022-10-02T20:13:05.294Z,2.75
2022-10-02T20:16:13.227Z,3.13
2022-10-02T20:18:40.030Z,3.28
2022-10-02T20:21:16.543Z,3.13
2022-10-02T20:23:49.609Z,3.55
2022-10-02T20:26:19.108Z,3.50
2022-10-02T20:28:52.057Z,3.38
2022-10-02T20:31:25.143Z,3.35
2022-10-02T20:34:04.569Z,2.92
2022-10-02T20:36:54.789Z,3.35
2022-10-02T20:39:27.150Z,3.35
2022-10-02T20:42:21.141Z,3.10
2022-10-02T20:44:50.862Z,3.17
2022-10-02T20:47:29.294Z,3.30
2022-10-02T20:50:34.165Z,3.13
2022-10-02T20:53:19.293Z,3.03
2022-10-02T20:56:03.386Z,3.00
2022-10-02T20:58:49.104Z,3.45
2022-10-02T21:01:50.179Z,3.90
2022-10-02T21:04:38.113Z,3.92
2022-10-02T21:07:10.729Z,3.20
2022-10-02T21:10:22.086Z,3.83
2022-10-02T21:13:13.019Z,3.30
2022-10-02T21:15:59.935Z,3.65
2022-10-02T21:18:41.688Z,3.38
2022-10-02T21:21:53.704Z,3.22
2022-10-02T21:25:08.791Z,3.35
2022-10-02T21:27:59.603Z,3.25
2022-10-02T21:30:58.359Z,3.08
2022-10-02T21:33:31.535Z,3.17
2022-10-02T21:36:24.997Z,3.33
2022-10-02T21:39:22.537Z,3.75
2022-10-02T21:42:10.882Z,3.30
2022-10-02T21:45:00.349Z,3.50
2022-10-02T21:48:04.542Z,2.80
2022-10-02T21:51:06.426Z,3.72
2022-10-02T21:53:32.876Z,4.10
2022-10-02T21:56:20.944Z,3.58
2022-10-02T21:58:50.659Z,2.88
2022-10-02T22:01:46.478Z,3.10
2022-10-02T22:04:42.926Z,3.40
2022-10-02T22:07:36.208Z,3.72
2022-10-02T22:10:22.602Z,3.10
2022-10-02T22:13:25.396Z,3.40
2022-10-02T22:16:39.550Z,3.25
2022-10-02T22:19:27.625Z,3.72
2022-10-02T22:21:57.143Z,3.50
2022-10-02T22:24:35.410Z,3.38
2022-10-02T22:27:39.446Z,3.33
2022-10-02T22:30:10.729Z,3.70
2022-10-02T22:33:13.246Z,3.95
2022-10-02T22:36:12.426Z,3.40
2022-10-02T22:39:22.442Z,4.13
2022-10-02T22:42:03.098Z,3.60
2022-10-02T22:44:48.129Z,3.60
2022-10-02T22:47:52.093Z,3.22
2022-10-02T22:50:31.403Z,3.08
2022-10-02T22:53:15.376Z,4.07
2022-10-02T22:55:50.177Z,3.45
2022-10-02T22:58:50.565Z,3.90
2022-10-02T23:01:33.224Z,3.17
2022-10-02T23:04:16.811Z,3.38
2022-10-02T23:06:53.400Z,3.30
2022-10-02T23:09:30.673Z,3.22
2022-10-02T23:12:26.646Z,3.15
2022-10-02T23:15:28.116Z,3.50
2022-10-02T23:17:59.655Z,3.92
2022-10-02T23:20:40.733Z,3.92
2022-10-02T23:23:25.916Z,3.60
2022-10-02T23:26:06.592Z,3.78
2022-10-02T23:28:54.973Z,3.40
2022-10-02T23:31:32.087Z,3.35
2022-10-02T23:34:10.923Z,3.65
2022-10-02T23:36:50.079Z,3.70
2022-10-02T23:39:29.306Z,3.30
2022-10-02T23:41:59.252Z,3.53
2022-10-02T23:44:41.568Z,3.05
2022-10-02T23:47:35.257Z,3.50
2022-10-02T23:50:02.389Z,3.72
2022-10-02T23:53:08.433Z,3.92
2022-10-02T23:56:24.907Z,3.40
2022-10-02T23:59:00.239Z,3.53
